N624KE KVLD-KOPF
Flight info
| Callsign | N624KE |
|---|---|
| Flight time | 1h 13m |
| Altitude | 33000 |
| Route | LAL |
| Aircraft | P180/L-SBDFGM3RWXY/LB1 |
Departure
| Time | 2026-05-08 20:58 |
|---|---|
| Airport | Valdosta Regional Airport (KVLD) |
Arrival
| Time | 2026-05-08 22:11 |
|---|---|
| Airport | Miami-Opa Locka Executive Airport (KOPF) |
| Time | Latitude | Longitude | Altitude | Speed | Heading |
|---|---|---|---|---|---|
| 2026-05-08 20:46 | 30.78372 | -83.27230 | 201 ft | 0 kts | 262° |
| 2026-05-08 20:52 | 30.78372 | -83.27231 | 201 ft | 1 kts | 262° |
| 2026-05-08 20:52 | 30.78370 | -83.27248 | 205 ft | 3 kts | 262° |
| 2026-05-08 20:52 | 30.78350 | -83.27262 | 204 ft | 5 kts | 170° |
| 2026-05-08 20:53 | 30.78303 | -83.27252 | 207 ft | 8 kts | 170° |
| 2026-05-08 20:53 | 30.78236 | -83.27240 | 206 ft | 11 kts | 171° |
| 2026-05-08 20:53 | 30.78151 | -83.27224 | 204 ft | 13 kts | 170° |
| 2026-05-08 20:53 | 30.78051 | -83.27206 | 204 ft | 16 kts | 171° |
| 2026-05-08 20:54 | 30.77934 | -83.27184 | 201 ft | 18 kts | 171° |
| 2026-05-08 20:54 | 30.77807 | -83.27161 | 201 ft | 20 kts | 171° |
| 2026-05-08 20:54 | 30.77669 | -83.27135 | 200 ft | 20 kts | 172° |
| 2026-05-08 20:54 | 30.77534 | -83.27111 | 204 ft | 18 kts | 171° |
| 2026-05-08 20:55 | 30.77405 | -83.27087 | 208 ft | 20 kts | 171° |
| 2026-05-08 20:55 | 30.77265 | -83.27059 | 206 ft | 21 kts | 170° |
| 2026-05-08 20:55 | 30.77117 | -83.27032 | 204 ft | 22 kts | 171° |
| 2026-05-08 20:55 | 30.76988 | -83.27009 | 208 ft | 10 kts | 172° |
| 2026-05-08 20:56 | 30.76964 | -83.27013 | 201 ft | 0 kts | 217° |
| 2026-05-08 20:56 | 30.76963 | -83.27013 | 201 ft | 1 kts | 219° |
| 2026-05-08 20:56 | 30.76957 | -83.27024 | 201 ft | 4 kts | 244° |
| 2026-05-08 20:56 | 30.76943 | -83.27107 | 203 ft | 9 kts | 259° |
| 2026-05-08 20:57 | 30.76961 | -83.27132 | 208 ft | 5 kts | 352° |
| 2026-05-08 20:57 | 30.77086 | -83.27156 | 210 ft | 52 kts | 351° |
| 2026-05-08 20:57 | 30.77702 | -83.27271 | 209 ft | 119 kts | 351° |
| 2026-05-08 20:57 | 30.78600 | -83.27449 | 415 ft | 139 kts | 352° |
| 2026-05-08 20:58 | 30.79551 | -83.27637 | 902 ft | 145 kts | 352° |
| 2026-05-08 20:58 | 30.80494 | -83.27826 | 1312 ft | 157 kts | 351° |
| 2026-05-08 20:58 | 30.81537 | -83.27634 | 1775 ft | 175 kts | 36° |
| 2026-05-08 20:58 | 30.82082 | -83.26380 | 2261 ft | 187 kts | 82° |
| 2026-05-08 20:59 | 30.82216 | -83.24851 | 2744 ft | 196 kts | 84° |
| 2026-05-08 20:59 | 30.82370 | -83.23234 | 3218 ft | 205 kts | 91° |
| 2026-05-08 20:59 | 30.81956 | -83.21662 | 3660 ft | 207 kts | 120° |
| 2026-05-08 20:59 | 30.81158 | -83.20252 | 4103 ft | 210 kts | 137° |
| 2026-05-08 21:00 | 30.79847 | -83.19502 | 4550 ft | 216 kts | 166° |
| 2026-05-08 21:00 | 30.78372 | -83.19022 | 4997 ft | 224 kts | 166° |
| 2026-05-08 21:00 | 30.76885 | -83.18464 | 5427 ft | 230 kts | 162° |
| 2026-05-08 21:00 | 30.75376 | -83.17801 | 5872 ft | 233 kts | 161° |
| 2026-05-08 21:01 | 30.73850 | -83.17123 | 6326 ft | 236 kts | 162° |
| 2026-05-08 21:01 | 30.72302 | -83.16457 | 6751 ft | 237 kts | 162° |
| 2026-05-08 21:01 | 30.70741 | -83.15784 | 7177 ft | 239 kts | 162° |
| 2026-05-08 21:01 | 30.69196 | -83.15117 | 7604 ft | 240 kts | 163° |
| 2026-05-08 21:02 | 30.67608 | -83.14428 | 8046 ft | 241 kts | 163° |
| 2026-05-08 21:02 | 30.66052 | -83.13756 | 8479 ft | 242 kts | 163° |
| 2026-05-08 21:02 | 30.64468 | -83.13072 | 8927 ft | 242 kts | 163° |
| 2026-05-08 21:02 | 30.62885 | -83.12386 | 9381 ft | 243 kts | 164° |
| 2026-05-08 21:03 | 30.61295 | -83.11704 | 9847 ft | 244 kts | 164° |
| 2026-05-08 21:03 | 30.59693 | -83.11021 | 10269 ft | 246 kts | 163° |
| 2026-05-08 21:03 | 30.58088 | -83.10283 | 10688 ft | 249 kts | 165° |
| 2026-05-08 21:03 | 30.56450 | -83.09626 | 11110 ft | 250 kts | 166° |
| 2026-05-08 21:04 | 30.54811 | -83.08936 | 11528 ft | 250 kts | 164° |
| 2026-05-08 21:04 | 30.53196 | -83.08194 | 11966 ft | 248 kts | 165° |
| 2026-05-08 21:04 | 30.51578 | -83.07499 | 12408 ft | 247 kts | 166° |
| 2026-05-08 21:04 | 30.49970 | -83.06817 | 12859 ft | 245 kts | 166° |
| 2026-05-08 21:05 | 30.48373 | -83.06129 | 13312 ft | 244 kts | 166° |
| 2026-05-08 21:05 | 30.46805 | -83.05453 | 13764 ft | 244 kts | 166° |
| 2026-05-08 21:05 | 30.45217 | -83.04769 | 14176 ft | 242 kts | 167° |
| 2026-05-08 21:05 | 30.43637 | -83.04089 | 14591 ft | 240 kts | 168° |
| 2026-05-08 21:06 | 30.42075 | -83.03417 | 15008 ft | 238 kts | 168° |
| 2026-05-08 21:06 | 30.40528 | -83.02753 | 15434 ft | 236 kts | 169° |
| 2026-05-08 21:06 | 30.38997 | -83.02094 | 15863 ft | 234 kts | 169° |
| 2026-05-08 21:06 | 30.37479 | -83.01442 | 16300 ft | 231 kts | 170° |
| 2026-05-08 21:07 | 30.35981 | -83.00798 | 16737 ft | 228 kts | 171° |
| 2026-05-08 21:07 | 30.34500 | -83.00163 | 17188 ft | 225 kts | 171° |
| 2026-05-08 21:07 | 30.33039 | -82.99533 | 17643 ft | 222 kts | 172° |
| 2026-05-08 21:07 | 30.31614 | -82.98924 | 18100 ft | 220 kts | 172° |
| 2026-05-08 21:08 | 30.30182 | -82.98311 | 18522 ft | 218 kts | 173° |
| 2026-05-08 21:08 | 30.28762 | -82.97701 | 18925 ft | 216 kts | 173° |
| 2026-05-08 21:08 | 30.27352 | -82.97095 | 19335 ft | 214 kts | 174° |
| 2026-05-08 21:08 | 30.25967 | -82.96502 | 19742 ft | 210 kts | 174° |
| 2026-05-08 21:09 | 30.24607 | -82.95918 | 20166 ft | 207 kts | 175° |
| 2026-05-08 21:09 | 30.23264 | -82.95344 | 20559 ft | 205 kts | 175° |
| 2026-05-08 21:09 | 30.21926 | -82.94778 | 20831 ft | 210 kts | 175° |
| 2026-05-08 21:09 | 30.20563 | -82.94199 | 21066 ft | 215 kts | 175° |
| 2026-05-08 21:10 | 30.19158 | -82.93595 | 21340 ft | 219 kts | 174° |
| 2026-05-08 21:10 | 30.17722 | -82.92979 | 21617 ft | 222 kts | 175° |
| 2026-05-08 21:10 | 30.16257 | -82.92352 | 21900 ft | 226 kts | 174° |
| 2026-05-08 21:10 | 30.14775 | -82.91719 | 22184 ft | 229 kts | 175° |
| 2026-05-08 21:11 | 30.13272 | -82.91078 | 22475 ft | 232 kts | 174° |
| 2026-05-08 21:11 | 30.11769 | -82.90434 | 22759 ft | 235 kts | 175° |
| 2026-05-08 21:11 | 30.10223 | -82.89773 | 23050 ft | 238 kts | 174° |
| 2026-05-08 21:11 | 30.08656 | -82.89104 | 23342 ft | 241 kts | 174° |
| 2026-05-08 21:12 | 30.07073 | -82.88430 | 23622 ft | 244 kts | 174° |
| 2026-05-08 21:12 | 30.05472 | -82.87745 | 23865 ft | 246 kts | 174° |
| 2026-05-08 21:12 | 30.03851 | -82.87055 | 24112 ft | 249 kts | 174° |
| 2026-05-08 21:12 | 30.02215 | -82.86357 | 24358 ft | 252 kts | 174° |
| 2026-05-08 21:13 | 30.00586 | -82.85662 | 24602 ft | 254 kts | 174° |
| 2026-05-08 21:13 | 29.98916 | -82.84950 | 24859 ft | 257 kts | 174° |
| 2026-05-08 21:13 | 29.97231 | -82.84233 | 25119 ft | 259 kts | 174° |
| 2026-05-08 21:13 | 29.95528 | -82.83508 | 25372 ft | 262 kts | 174° |
| 2026-05-08 21:14 | 29.93805 | -82.82775 | 25629 ft | 264 kts | 174° |
| 2026-05-08 21:14 | 29.92076 | -82.82038 | 25889 ft | 266 kts | 173° |
| 2026-05-08 21:14 | 29.90329 | -82.81295 | 26119 ft | 268 kts | 173° |
| 2026-05-08 21:14 | 29.88571 | -82.80549 | 26383 ft | 270 kts | 173° |
| 2026-05-08 21:15 | 29.86801 | -82.79796 | 26652 ft | 273 kts | 173° |
| 2026-05-08 21:15 | 29.85013 | -82.79037 | 26918 ft | 275 kts | 173° |
| 2026-05-08 21:15 | 29.83214 | -82.78272 | 27187 ft | 277 kts | 173° |
| 2026-05-08 21:15 | 29.81403 | -82.77505 | 27462 ft | 279 kts | 173° |
| 2026-05-08 21:16 | 29.79598 | -82.76738 | 27736 ft | 280 kts | 173° |
| 2026-05-08 21:16 | 29.77759 | -82.75958 | 28023 ft | 282 kts | 173° |
| 2026-05-08 21:16 | 29.75911 | -82.75173 | 28299 ft | 284 kts | 173° |
| 2026-05-08 21:16 | 29.74051 | -82.74386 | 28602 ft | 285 kts | 173° |
| 2026-05-08 21:17 | 29.72185 | -82.73595 | 28912 ft | 286 kts | 173° |
| 2026-05-08 21:17 | 29.70313 | -82.72800 | 29234 ft | 286 kts | 173° |
| 2026-05-08 21:17 | 29.68441 | -82.72009 | 29554 ft | 286 kts | 173° |
| 2026-05-08 21:17 | 29.66571 | -82.71217 | 29876 ft | 286 kts | 174° |
| 2026-05-08 21:18 | 29.64707 | -82.70429 | 30188 ft | 285 kts | 174° |
| 2026-05-08 21:18 | 29.62849 | -82.69642 | 30462 ft | 284 kts | 174° |
| 2026-05-08 21:18 | 29.61021 | -82.68870 | 30710 ft | 283 kts | 174° |
| 2026-05-08 21:18 | 29.59182 | -82.68092 | 30986 ft | 281 kts | 174° |
| 2026-05-08 21:19 | 29.57351 | -82.67319 | 31268 ft | 279 kts | 174° |
| 2026-05-08 21:19 | 29.55536 | -82.66553 | 31546 ft | 277 kts | 174° |
| 2026-05-08 21:19 | 29.53736 | -82.65793 | 31829 ft | 275 kts | 174° |
| 2026-05-08 21:19 | 29.51950 | -82.65039 | 32114 ft | 272 kts | 175° |
| 2026-05-08 21:20 | 29.50178 | -82.64292 | 32399 ft | 270 kts | 175° |
| 2026-05-08 21:20 | 29.48420 | -82.63552 | 32688 ft | 268 kts | 175° |
| 2026-05-08 21:20 | 29.46677 | -82.62817 | 32981 ft | 265 kts | 175° |
| 2026-05-08 21:20 | 29.44921 | -82.62085 | 33029 ft | 273 kts | 175° |
| 2026-05-08 21:21 | 29.43102 | -82.61328 | 33030 ft | 282 kts | 174° |
| 2026-05-08 21:21 | 29.41236 | -82.60540 | 33044 ft | 290 kts | 174° |
| 2026-05-08 21:21 | 29.39345 | -82.59741 | 33053 ft | 298 kts | 174° |
| 2026-05-08 21:22 | 29.35355 | -82.58063 | 33044 ft | 312 kts | 173° |
| 2026-05-08 21:22 | 29.31198 | -82.56314 | 33037 ft | 323 kts | 173° |
| 2026-05-08 21:23 | 29.26898 | -82.54510 | 33043 ft | 334 kts | 172° |
| 2026-05-08 21:23 | 29.22482 | -82.52655 | 33041 ft | 342 kts | 172° |
| 2026-05-08 21:24 | 29.17959 | -82.50761 | 33041 ft | 349 kts | 172° |
| 2026-05-08 21:24 | 29.13347 | -82.48828 | 33021 ft | 356 kts | 172° |
| 2026-05-08 21:25 | 29.08696 | -82.46885 | 33021 ft | 361 kts | 171° |
| 2026-05-08 21:25 | 29.03954 | -82.44902 | 33021 ft | 365 kts | 171° |
| 2026-05-08 21:26 | 28.99159 | -82.42902 | 33006 ft | 368 kts | 171° |
| 2026-05-08 21:26 | 28.94332 | -82.40888 | 33011 ft | 370 kts | 171° |
| 2026-05-08 21:27 | 28.89468 | -82.38864 | 33006 ft | 372 kts | 171° |
| 2026-05-08 21:27 | 28.84627 | -82.36846 | 33011 ft | 373 kts | 171° |
| 2026-05-08 21:28 | 28.79738 | -82.34816 | 33003 ft | 374 kts | 171° |
| 2026-05-08 21:28 | 28.74831 | -82.32776 | 33003 ft | 375 kts | 171° |
| 2026-05-08 21:29 | 28.69920 | -82.30741 | 32999 ft | 375 kts | 170° |
| 2026-05-08 21:29 | 28.65008 | -82.28704 | 33002 ft | 376 kts | 170° |
| 2026-05-08 21:30 | 28.60085 | -82.26668 | 33007 ft | 377 kts | 170° |
| 2026-05-08 21:30 | 28.55149 | -82.24624 | 33013 ft | 378 kts | 170° |
| 2026-05-08 21:31 | 28.50206 | -82.22583 | 33017 ft | 378 kts | 170° |
| 2026-05-08 21:31 | 28.46085 | -82.20881 | 33018 ft | 378 kts | 170° |
| 2026-05-08 21:32 | 28.41136 | -82.18841 | 33007 ft | 378 kts | 170° |
| 2026-05-08 21:32 | 28.36185 | -82.16800 | 33003 ft | 379 kts | 170° |
| 2026-05-08 21:33 | 28.31218 | -82.14756 | 33000 ft | 379 kts | 170° |
| 2026-05-08 21:33 | 28.26249 | -82.12714 | 32999 ft | 379 kts | 170° |
| 2026-05-08 21:34 | 28.21277 | -82.10670 | 33001 ft | 380 kts | 170° |
| 2026-05-08 21:34 | 28.16340 | -82.08645 | 33002 ft | 380 kts | 170° |
| 2026-05-08 21:35 | 28.11370 | -82.06607 | 32993 ft | 379 kts | 170° |
| 2026-05-08 21:35 | 28.06403 | -82.04572 | 32989 ft | 379 kts | 170° |
| 2026-05-08 21:36 | 28.01434 | -82.02540 | 32989 ft | 379 kts | 170° |
| 2026-05-08 21:36 | 27.96613 | -81.99893 | 32987 ft | 394 kts | 156° |
| 2026-05-08 21:37 | 27.92047 | -81.96430 | 32989 ft | 394 kts | 155° |
| 2026-05-08 21:37 | 27.87494 | -81.93030 | 32995 ft | 395 kts | 155° |
| 2026-05-08 21:38 | 27.82925 | -81.89591 | 32988 ft | 394 kts | 155° |
| 2026-05-08 21:38 | 27.78355 | -81.86168 | 32998 ft | 394 kts | 154° |
| 2026-05-08 21:39 | 27.73783 | -81.82743 | 33001 ft | 394 kts | 154° |
| 2026-05-08 21:39 | 27.69215 | -81.79324 | 33005 ft | 394 kts | 154° |
| 2026-05-08 21:40 | 27.64665 | -81.75923 | 33009 ft | 394 kts | 154° |
| 2026-05-08 21:40 | 27.60093 | -81.72509 | 33014 ft | 394 kts | 154° |
| 2026-05-08 21:41 | 27.53232 | -81.67393 | 33019 ft | 394 kts | 154° |
| 2026-05-08 21:41 | 27.48687 | -81.64007 | 33013 ft | 394 kts | 154° |
| 2026-05-08 21:42 | 27.44114 | -81.60604 | 33012 ft | 394 kts | 154° |
| 2026-05-08 21:42 | 27.39528 | -81.57195 | 33012 ft | 394 kts | 154° |
| 2026-05-08 21:43 | 27.34949 | -81.53794 | 33011 ft | 394 kts | 154° |
| 2026-05-08 21:43 | 27.30369 | -81.50397 | 33002 ft | 394 kts | 154° |
| 2026-05-08 21:44 | 27.25874 | -81.47066 | 33006 ft | 394 kts | 154° |
| 2026-05-08 21:44 | 27.23590 | -81.45373 | 32812 ft | 392 kts | 154° |
| 2026-05-08 21:44 | 27.21352 | -81.43712 | 32347 ft | 389 kts | 155° |
| 2026-05-08 21:45 | 27.19095 | -81.42048 | 31839 ft | 386 kts | 155° |
| 2026-05-08 21:45 | 27.16865 | -81.40396 | 31362 ft | 383 kts | 154° |
| 2026-05-08 21:45 | 27.14657 | -81.38762 | 30889 ft | 377 kts | 155° |
| 2026-05-08 21:45 | 27.12492 | -81.37160 | 30425 ft | 368 kts | 155° |
| 2026-05-08 21:46 | 27.10379 | -81.35600 | 29951 ft | 359 kts | 155° |
| 2026-05-08 21:46 | 27.08315 | -81.34078 | 29409 ft | 352 kts | 155° |
| 2026-05-08 21:46 | 27.06287 | -81.32583 | 28876 ft | 345 kts | 155° |
| 2026-05-08 21:46 | 27.04297 | -81.31117 | 28356 ft | 340 kts | 155° |
| 2026-05-08 21:47 | 27.02335 | -81.29671 | 27848 ft | 335 kts | 155° |
| 2026-05-08 21:47 | 27.00399 | -81.28244 | 27343 ft | 330 kts | 155° |
| 2026-05-08 21:47 | 26.98490 | -81.26839 | 26851 ft | 326 kts | 155° |
| 2026-05-08 21:47 | 26.96602 | -81.25450 | 26367 ft | 323 kts | 155° |
| 2026-05-08 21:48 | 26.94734 | -81.24075 | 25893 ft | 319 kts | 155° |
| 2026-05-08 21:48 | 26.92887 | -81.22715 | 25426 ft | 316 kts | 155° |
| 2026-05-08 21:48 | 26.91057 | -81.21370 | 24968 ft | 313 kts | 155° |
| 2026-05-08 21:48 | 26.89264 | -81.20054 | 24508 ft | 310 kts | 155° |
| 2026-05-08 21:49 | 26.87465 | -81.18732 | 24064 ft | 308 kts | 154° |
| 2026-05-08 21:49 | 26.85682 | -81.17420 | 23628 ft | 305 kts | 154° |
| 2026-05-08 21:49 | 26.83911 | -81.16122 | 23120 ft | 303 kts | 154° |
| 2026-05-08 21:49 | 26.82158 | -81.14835 | 22604 ft | 300 kts | 154° |
| 2026-05-08 21:50 | 26.80417 | -81.13558 | 22106 ft | 297 kts | 154° |
| 2026-05-08 21:50 | 26.78702 | -81.12297 | 21705 ft | 291 kts | 154° |
| 2026-05-08 21:50 | 26.77024 | -81.11067 | 21309 ft | 286 kts | 154° |
| 2026-05-08 21:50 | 26.75373 | -81.09857 | 20918 ft | 281 kts | 154° |
| 2026-05-08 21:51 | 26.73744 | -81.08666 | 20527 ft | 277 kts | 154° |
| 2026-05-08 21:51 | 26.72144 | -81.07493 | 20184 ft | 272 kts | 153° |
| 2026-05-08 21:51 | 26.70575 | -81.06344 | 19853 ft | 267 kts | 153° |
| 2026-05-08 21:51 | 26.69026 | -81.05211 | 19527 ft | 263 kts | 153° |
| 2026-05-08 21:52 | 26.67503 | -81.04098 | 19206 ft | 259 kts | 153° |
| 2026-05-08 21:52 | 26.66007 | -81.03002 | 18887 ft | 256 kts | 153° |
| 2026-05-08 21:52 | 26.64540 | -81.01933 | 18573 ft | 253 kts | 153° |
| 2026-05-08 21:52 | 26.63077 | -81.00861 | 18258 ft | 250 kts | 153° |
| 2026-05-08 21:53 | 26.61625 | -80.99802 | 17900 ft | 248 kts | 153° |
| 2026-05-08 21:53 | 26.60191 | -80.98754 | 17542 ft | 245 kts | 153° |
| 2026-05-08 21:53 | 26.58771 | -80.97718 | 17190 ft | 243 kts | 153° |
| 2026-05-08 21:53 | 26.57362 | -80.96688 | 16831 ft | 241 kts | 152° |
| 2026-05-08 21:54 | 26.55964 | -80.95669 | 16485 ft | 239 kts | 152° |
| 2026-05-08 21:54 | 26.54578 | -80.94657 | 16144 ft | 237 kts | 151° |
| 2026-05-08 21:54 | 26.53197 | -80.93651 | 15807 ft | 236 kts | 151° |
| 2026-05-08 21:54 | 26.51832 | -80.92654 | 15475 ft | 234 kts | 151° |
| 2026-05-08 21:55 | 26.50470 | -80.91663 | 15145 ft | 232 kts | 151° |
| 2026-05-08 21:55 | 26.49122 | -80.90680 | 14816 ft | 231 kts | 150° |
| 2026-05-08 21:55 | 26.47777 | -80.89700 | 14493 ft | 230 kts | 150° |
| 2026-05-08 21:56 | 26.45154 | -80.87790 | 13971 ft | 223 kts | 150° |
| 2026-05-08 21:56 | 26.43875 | -80.86857 | 13717 ft | 219 kts | 150° |
| 2026-05-08 21:56 | 26.42605 | -80.85935 | 13434 ft | 216 kts | 150° |
| 2026-05-08 21:56 | 26.41350 | -80.85020 | 13155 ft | 215 kts | 150° |
| 2026-05-08 21:57 | 26.40079 | -80.84100 | 12879 ft | 221 kts | 150° |
| 2026-05-08 21:57 | 26.38774 | -80.83150 | 12612 ft | 227 kts | 150° |
| 2026-05-08 21:57 | 26.37440 | -80.82180 | 12350 ft | 231 kts | 150° |
| 2026-05-08 21:57 | 26.36084 | -80.81193 | 12088 ft | 233 kts | 150° |
| 2026-05-08 21:58 | 26.34717 | -80.80201 | 11829 ft | 235 kts | 150° |
| 2026-05-08 21:58 | 26.33361 | -80.79215 | 11569 ft | 236 kts | 150° |
| 2026-05-08 21:58 | 26.31983 | -80.78215 | 11313 ft | 236 kts | 150° |
| 2026-05-08 21:58 | 26.30604 | -80.77212 | 11056 ft | 236 kts | 150° |
| 2026-05-08 21:59 | 26.29226 | -80.76214 | 10799 ft | 236 kts | 150° |
| 2026-05-08 21:59 | 26.27855 | -80.75216 | 10552 ft | 236 kts | 150° |
| 2026-05-08 21:59 | 26.26481 | -80.74222 | 10285 ft | 235 kts | 149° |
| 2026-05-08 21:59 | 26.25108 | -80.73229 | 10015 ft | 235 kts | 149° |
| 2026-05-08 22:00 | 26.23738 | -80.72232 | 9701 ft | 235 kts | 149° |
| 2026-05-08 22:00 | 26.22366 | -80.71239 | 9373 ft | 234 kts | 149° |
| 2026-05-08 22:00 | 26.21010 | -80.70254 | 9047 ft | 231 kts | 149° |
| 2026-05-08 22:00 | 26.19670 | -80.69287 | 8720 ft | 228 kts | 149° |
| 2026-05-08 22:01 | 26.18345 | -80.68326 | 8408 ft | 227 kts | 148° |
| 2026-05-08 22:01 | 26.17025 | -80.67372 | 8086 ft | 226 kts | 148° |
| 2026-05-08 22:01 | 26.15713 | -80.66421 | 7772 ft | 224 kts | 148° |
| 2026-05-08 22:01 | 26.14422 | -80.65487 | 7466 ft | 224 kts | 147° |
| 2026-05-08 22:02 | 26.13112 | -80.64542 | 7158 ft | 223 kts | 147° |
| 2026-05-08 22:02 | 26.11811 | -80.63599 | 6855 ft | 223 kts | 147° |
| 2026-05-08 22:02 | 26.10503 | -80.62655 | 6552 ft | 222 kts | 146° |
| 2026-05-08 22:02 | 26.09210 | -80.61719 | 6245 ft | 222 kts | 146° |
| 2026-05-08 22:03 | 26.07920 | -80.60787 | 5933 ft | 221 kts | 146° |
| 2026-05-08 22:03 | 26.06648 | -80.59868 | 5626 ft | 220 kts | 147° |
| 2026-05-08 22:03 | 26.05365 | -80.58944 | 5309 ft | 219 kts | 146° |
| 2026-05-08 22:03 | 26.04087 | -80.58019 | 4994 ft | 218 kts | 146° |
| 2026-05-08 22:04 | 26.02819 | -80.57105 | 4682 ft | 215 kts | 146° |
| 2026-05-08 22:04 | 26.01567 | -80.56202 | 4362 ft | 213 kts | 147° |
| 2026-05-08 22:04 | 26.00327 | -80.55306 | 4048 ft | 212 kts | 147° |
| 2026-05-08 22:04 | 25.99099 | -80.54423 | 3734 ft | 208 kts | 147° |
| 2026-05-08 22:05 | 25.97896 | -80.53553 | 3427 ft | 205 kts | 147° |
| 2026-05-08 22:05 | 25.96717 | -80.52704 | 3116 ft | 204 kts | 147° |
| 2026-05-08 22:05 | 25.95547 | -80.51864 | 2988 ft | 193 kts | 146° |
| 2026-05-08 22:05 | 25.94445 | -80.51066 | 2981 ft | 192 kts | 147° |
| 2026-05-08 22:06 | 25.93305 | -80.50245 | 2945 ft | 198 kts | 147° |
| 2026-05-08 22:06 | 25.92128 | -80.49398 | 2741 ft | 204 kts | 147° |
| 2026-05-08 22:06 | 25.90974 | -80.48463 | 2528 ft | 206 kts | 133° |
| 2026-05-08 22:06 | 25.90452 | -80.47056 | 2491 ft | 193 kts | 95° |
| 2026-05-08 22:07 | 25.90473 | -80.45602 | 2488 ft | 183 kts | 88° |
| 2026-05-08 22:07 | 25.90522 | -80.44202 | 2486 ft | 181 kts | 88° |
| 2026-05-08 22:07 | 25.90577 | -80.42782 | 2391 ft | 186 kts | 88° |
| 2026-05-08 22:07 | 25.90668 | -80.41379 | 2156 ft | 177 kts | 87° |
| 2026-05-08 22:08 | 25.90737 | -80.40083 | 1946 ft | 159 kts | 89° |
| 2026-05-08 22:08 | 25.90777 | -80.39005 | 1755 ft | 125 kts | 87° |
| 2026-05-08 22:08 | 25.90825 | -80.38051 | 1596 ft | 123 kts | 91° |
| 2026-05-08 22:08 | 25.90869 | -80.37079 | 1440 ft | 129 kts | 90° |
| 2026-05-08 22:09 | 25.90918 | -80.36068 | 1270 ft | 132 kts | 88° |
| 2026-05-08 22:09 | 25.90970 | -80.35058 | 1101 ft | 128 kts | 89° |
| 2026-05-08 22:09 | 25.91014 | -80.34114 | 949 ft | 120 kts | 89° |
| 2026-05-08 22:09 | 25.91059 | -80.33210 | 796 ft | 116 kts | 89° |
| 2026-05-08 22:10 | 25.91101 | -80.32296 | 655 ft | 122 kts | 90° |
| 2026-05-08 22:10 | 25.91135 | -80.31337 | 489 ft | 120 kts | 86° |
| 2026-05-08 22:10 | 25.91181 | -80.30461 | 334 ft | 110 kts | 91° |
| 2026-05-08 22:10 | 25.91229 | -80.29587 | 213 ft | 111 kts | 88° |
| 2026-05-08 22:11 | 25.91273 | -80.28752 | 43 ft | 107 kts | 88° |
| 2026-05-08 22:11 | 25.91306 | -80.28014 | 8 ft | 76 kts | 86° |
| 2026-05-08 22:11 | 25.91324 | -80.27617 | 10 ft | 41 kts | 88° |
| 2026-05-08 22:11 | 25.91335 | -80.27409 | 12 ft | 20 kts | 86° |
| 2026-05-08 22:12 | 25.91299 | -80.27317 | 12 ft | 13 kts | 179° |
| 2026-05-08 22:12 | 25.91214 | -80.27361 | 10 ft | 15 kts | 211° |
| 2026-05-08 22:12 | 25.91150 | -80.27375 | 10 ft | 8 kts | 122° |
| 2026-05-08 22:12 | 25.91123 | -80.27326 | 10 ft | 8 kts | 157° |
| 2026-05-08 22:13 | 25.91082 | -80.27280 | 10 ft | 8 kts | 110° |
| 2026-05-08 22:13 | 25.91073 | -80.27222 | 10 ft | 8 kts | 93° |
| 2026-05-08 22:13 | 25.91068 | -80.27162 | 10 ft | 6 kts | 111° |
| 2026-05-08 22:13 | 25.91056 | -80.27139 | 10 ft | 0 kts | 122° |
| 2026-05-08 23:11 | 25.91054 | -80.27135 | 19 ft | 1 kts | 120° |
| 2026-05-08 23:11 | 25.91047 | -80.27119 | 10 ft | 3 kts | 105° |
| 2026-05-08 23:12 | 25.91050 | -80.27085 | 10 ft | 5 kts | 82° |
| 2026-05-08 23:12 | 25.91056 | -80.27036 | 10 ft | 7 kts | 67° |
| 2026-05-08 23:12 | 25.91110 | -80.27022 | 10 ft | 10 kts | 360° |
| 2026-05-08 23:12 | 25.91190 | -80.27026 | 10 ft | 13 kts | 339° |
| 2026-05-08 23:13 | 25.91213 | -80.27124 | 10 ft | 15 kts | 267° |
| 2026-05-08 23:13 | 25.91206 | -80.27252 | 11 ft | 18 kts | 267° |
| 2026-05-08 23:13 | 25.91198 | -80.27400 | 10 ft | 20 kts | 266° |
| 2026-05-08 23:13 | 25.91191 | -80.27566 | 10 ft | 22 kts | 268° |
| 2026-05-08 23:14 | 25.91182 | -80.27744 | 10 ft | 24 kts | 266° |
| 2026-05-08 23:14 | 25.91173 | -80.27933 | 9 ft | 25 kts | 267° |
| 2026-05-08 23:14 | 25.91165 | -80.28125 | 10 ft | 24 kts | 266° |
| 2026-05-08 23:14 | 25.91157 | -80.28275 | 10 ft | 19 kts | 267° |
| 2026-05-08 23:15 | 25.91150 | -80.28429 | 10 ft | 21 kts | 267° |
| 2026-05-08 23:15 | 25.91141 | -80.28591 | 10 ft | 19 kts | 265° |
| 2026-05-08 23:15 | 25.91134 | -80.28717 | 11 ft | 13 kts | 267° |
| 2026-05-08 23:15 | 25.91132 | -80.28790 | 11 ft | 6 kts | 270° |
| 2026-05-08 23:16 | 25.91132 | -80.28800 | 11 ft | 0 kts | 276° |
| 2026-05-08 23:17 | 25.91135 | -80.28813 | 11 ft | 1 kts | 285° |